Terminal Aerodrome Forecast
Issued by NWS Jackson, KY

Home | Current Version | Previous Version | Text Only | Print | Product List | Glossary On
Versions: 1 2 3 4 5 6 7 8 9 10 11 12 13 14 15 16 17 18 19 20 21
920
FTUS43 KJKL 101158 AAB
TAFJKL
TAF AMD
KJKL 101158Z 1012/1112 25008G14KT P6SM FEW021 FEW028 OVC050
     FM101400 27005KT P6SM VCSH BKN020
     FM102300 27009KT P6SM BKN025=

USA.gov is the U.S. government's official web portal to all federal, state and local government web resources and services.